createdAt,value
2018-09-21T00:08:54.762Z,0
2018-09-21T00:19:08.826Z,0
2018-09-21T00:29:24.515Z,0
2018-09-21T00:39:39.966Z,0
2018-09-21T00:49:55.471Z,0
2018-09-21T01:00:09.281Z,0
2018-09-21T01:10:24.336Z,0
2018-09-21T01:20:39.860Z,0
2018-09-21T01:30:54.252Z,0
2018-09-21T01:41:08.974Z,0
2018-09-21T01:51:23.763Z,0
2018-09-21T02:01:38.897Z,0
2018-09-21T02:11:52.853Z,0
2018-09-21T02:22:06.778Z,0
2018-09-21T02:32:20.953Z,0
2018-09-21T02:42:36.463Z,0
2018-09-21T02:52:50.474Z,0
2018-09-21T03:03:04.387Z,0
2018-09-21T03:13:20.192Z,0
2018-09-21T03:23:34.721Z,0
2018-09-21T03:33:50.123Z,0
2018-09-21T03:44:05.828Z,0
2018-09-21T03:54:20.107Z,0
2018-09-21T04:04:35.568Z,0
2018-09-21T04:14:51.157Z,0
2018-09-21T04:25:05.762Z,0
2018-09-21T04:35:20.091Z,0
2018-09-21T04:45:34.657Z,0
2018-09-21T04:55:49.617Z,0
2018-09-21T05:06:04.036Z,0
2018-09-21T05:16:18.377Z,5
2018-09-21T05:26:32.169Z,15
2018-09-21T05:36:47.484Z,30
2018-09-21T05:47:02.544Z,40
2018-09-21T05:57:16.394Z,50
2018-09-21T06:07:31.036Z,60
2018-09-21T06:17:45.149Z,110
2018-09-21T06:27:59.282Z,160
2018-09-21T06:38:14.389Z,165
2018-09-21T06:48:28.915Z,210
2018-09-21T06:58:44.550Z,195
2018-09-21T07:08:57.675Z,195
2018-09-21T07:19:12.634Z,100
2018-09-21T07:29:27.010Z,145
2018-09-21T07:39:42.840Z,295
2018-09-21T07:49:56.595Z,205
2018-09-21T08:00:12.329Z,190
2018-09-21T08:10:26.938Z,225
2018-09-21T08:20:42.039Z,470
2018-09-21T08:30:57.495Z,535
2018-09-21T08:41:12.113Z,400
2018-09-21T08:51:26.641Z,150
2018-09-21T09:01:42.326Z,70
2018-09-21T09:11:57.899Z,60
2018-09-21T09:22:11.844Z,155
2018-09-21T09:32:26.333Z,155
2018-09-21T09:42:40.156Z,405
2018-09-21T09:52:55.139Z,340
2018-09-21T10:03:09.477Z,355
2018-09-21T10:13:23.910Z,285
2018-09-21T10:23:37.243Z,370
2018-09-21T10:33:51.565Z,305
2018-09-21T10:44:05.793Z,530
2018-09-21T10:54:19.901Z,405
2018-09-21T11:04:35.614Z,645
2018-09-21T11:14:49.536Z,515
2018-09-21T11:25:03.861Z,680
2018-09-21T11:35:18.058Z,780
2018-09-21T11:45:32.527Z,535
2018-09-21T11:55:47.848Z,355
2018-09-21T12:06:02.141Z,85
2018-09-21T12:16:16.805Z,505
2018-09-21T12:26:30.852Z,635
2018-09-21T12:36:46.017Z,565
2018-09-21T12:47:01.550Z,510
2018-09-21T12:57:15.774Z,515
2018-09-21T13:07:30.783Z,510
2018-09-21T13:17:45.299Z,765
2018-09-21T13:28:00.848Z,435
2018-09-21T13:38:14.704Z,450
2018-09-21T13:48:30.098Z,540
2018-09-21T13:58:45.343Z,520
2018-09-21T14:08:59.138Z,1150
2018-09-21T14:19:13.378Z,1120
2018-09-21T14:29:28.691Z,1040
2018-09-21T14:39:43.763Z,1090
2018-09-21T14:49:58.612Z,1055
2018-09-21T15:00:14.315Z,935
2018-09-21T15:10:28.212Z,905
2018-09-21T15:20:42.004Z,855
2018-09-21T15:30:56.813Z,765
2018-09-21T15:41:10.876Z,735
2018-09-21T15:51:26.334Z,605
2018-09-21T16:01:41.368Z,535
2018-09-21T16:11:55.233Z,435
2018-09-21T16:22:10.520Z,285
2018-09-21T16:32:24.962Z,135
2018-09-21T16:42:40.530Z,100
2018-09-21T16:52:55.123Z,80
2018-09-21T17:03:10.980Z,60
2018-09-21T17:23:40.716Z,20
2018-09-21T17:33:55.399Z,5
2018-09-21T17:44:10.438Z,0
2018-09-21T17:54:25.321Z,0
2018-09-21T18:04:40.056Z,0
2018-09-21T18:14:54.938Z,0
2018-09-21T18:25:09.689Z,0
2018-09-21T18:35:25.300Z,0
2018-09-21T18:45:39.207Z,0
2018-09-21T18:55:53.370Z,0
2018-09-21T19:06:07.962Z,0
2018-09-21T19:16:23.437Z,0
2018-09-21T19:26:37.595Z,0
2018-09-21T19:36:52.357Z,0
2018-09-21T19:47:07.985Z,0
2018-09-21T19:57:21.841Z,0
2018-09-21T20:07:37.110Z,0
2018-09-21T20:17:51.133Z,0
2018-09-21T20:28:05.553Z,0
2018-09-21T20:38:19.764Z,0
2018-09-21T20:48:33.471Z,0
2018-09-21T20:58:47.468Z,0
2018-09-21T21:09:02.085Z,0
2018-09-21T21:19:15.769Z,0
2018-09-21T21:29:29.822Z,0
2018-09-21T21:39:45.102Z,0
2018-09-21T21:49:58.905Z,0
2018-09-21T22:00:14.600Z,0
2018-09-21T22:10:28.935Z,0
2018-09-21T22:20:43.218Z,0
2018-09-21T22:30:57.917Z,0
2018-09-21T22:41:12.149Z,0
2018-09-21T22:51:26.307Z,0
2018-09-21T23:01:41.900Z,0
2018-09-21T23:11:57.385Z,0
2018-09-21T23:22:14.070Z,0
2018-09-21T23:32:27.433Z,0
2018-09-21T23:42:41.647Z,0
2018-09-21T23:52:56.453Z,0
